sensor_id;sensor_type;location;lat;lon;timestamp;P1;durP1;ratioP1;P2;durP2;ratioP2
52668;SDS011;59898;52.786;6.892;2023-02-13T00:01:47;21.30;;;11.82;;
52668;SDS011;59898;52.786;6.892;2023-02-13T00:05:07;16.45;;;10.50;;
52668;SDS011;59898;52.786;6.892;2023-02-13T00:08:28;19.10;;;11.20;;
52668;SDS011;59898;52.786;6.892;2023-02-13T00:11:49;37.70;;;23.63;;
52668;SDS011;59898;52.786;6.892;2023-02-13T00:15:09;18.92;;;12.98;;
52668;SDS011;59898;52.786;6.892;2023-02-13T00:18:33;19.42;;;12.25;;
52668;SDS011;59898;52.786;6.892;2023-02-13T00:21:56;14.50;;;10.57;;
52668;SDS011;59898;52.786;6.892;2023-02-13T00:25:16;17.33;;;11.55;;
52668;SDS011;59898;52.786;6.892;2023-02-13T00:28:37;16.08;;;10.85;;
52668;SDS011;59898;52.786;6.892;2023-02-13T00:31:59;23.17;;;12.20;;
52668;SDS011;59898;52.786;6.892;2023-02-13T00:35:20;16.73;;;10.95;;
52668;SDS011;59898;52.786;6.892;2023-02-13T00:38:41;16.67;;;10.35;;
52668;SDS011;59898;52.786;6.892;2023-02-13T00:42:02;15.05;;;10.15;;
52668;SDS011;59898;52.786;6.892;2023-02-13T00:45:23;17.75;;;11.52;;
52668;SDS011;59898;52.786;6.892;2023-02-13T00:48:44;16.65;;;11.07;;
52668;SDS011;59898;52.786;6.892;2023-02-13T00:52:04;17.02;;;10.73;;
52668;SDS011;59898;52.786;6.892;2023-02-13T00:55:25;19.23;;;11.10;;
52668;SDS011;59898;52.786;6.892;2023-02-13T00:58:46;18.15;;;10.80;;
52668;SDS011;59898;52.786;6.892;2023-02-13T01:02:06;17.13;;;11.38;;
52668;SDS011;59898;52.786;6.892;2023-02-13T01:05:27;18.67;;;11.15;;
52668;SDS011;59898;52.786;6.892;2023-02-13T01:08:48;19.00;;;11.82;;
52668;SDS011;59898;52.786;6.892;2023-02-13T01:12:08;16.65;;;11.30;;
52668;SDS011;59898;52.786;6.892;2023-02-13T01:15:29;19.58;;;11.73;;
52668;SDS011;59898;52.786;6.892;2023-02-13T01:18:51;17.98;;;11.32;;
52668;SDS011;59898;52.786;6.892;2023-02-13T01:22:12;19.33;;;12.25;;
52668;SDS011;59898;52.786;6.892;2023-02-13T01:25:33;17.80;;;13.05;;
52668;SDS011;59898;52.786;6.892;2023-02-13T01:28:54;19.08;;;13.25;;
52668;SDS011;59898;52.786;6.892;2023-02-13T01:32:16;16.27;;;10.38;;
52668;SDS011;59898;52.786;6.892;2023-02-13T01:35:40;18.52;;;11.60;;
52668;SDS011;59898;52.786;6.892;2023-02-13T01:39:01;18.25;;;12.25;;
52668;SDS011;59898;52.786;6.892;2023-02-13T01:42:26;20.08;;;12.25;;
52668;SDS011;59898;52.786;6.892;2023-02-13T01:45:49;18.88;;;12.93;;
52668;SDS011;59898;52.786;6.892;2023-02-13T01:49:17;18.35;;;11.75;;
52668;SDS011;59898;52.786;6.892;2023-02-13T01:52:46;19.45;;;12.18;;
52668;SDS011;59898;52.786;6.892;2023-02-13T01:59:38;20.73;;;12.85;;
52668;SDS011;59898;52.786;6.892;2023-02-13T02:03:12;22.95;;;12.80;;
52668;SDS011;59898;52.786;6.892;2023-02-13T02:06:38;20.02;;;13.20;;
52668;SDS011;59898;52.786;6.892;2023-02-13T02:10:11;21.85;;;12.73;;
52668;SDS011;59898;52.786;6.892;2023-02-13T02:13:35;18.85;;;12.63;;
52668;SDS011;59898;52.786;6.892;2023-02-13T02:16:57;21.60;;;13.48;;
52668;SDS011;59898;52.786;6.892;2023-02-13T02:24:11;17.45;;;11.48;;
52668;SDS011;59898;52.786;6.892;2023-02-13T02:27:59;19.83;;;13.10;;
52668;SDS011;59898;52.786;6.892;2023-02-13T02:50:36;18.63;;;11.45;;
52668;SDS011;59898;52.786;6.892;2023-02-13T02:58:11;20.73;;;13.80;;
52668;SDS011;59898;52.786;6.892;2023-02-13T03:01:55;23.05;;;12.75;;
52668;SDS011;59898;52.786;6.892;2023-02-13T03:05:36;18.25;;;12.50;;
52668;SDS011;59898;52.786;6.892;2023-02-13T03:09:20;23.88;;;14.25;;
52668;SDS011;59898;52.786;6.892;2023-02-13T03:13:08;19.27;;;13.02;;
52668;SDS011;59898;52.786;6.892;2023-02-13T03:16:40;21.85;;;13.27;;
52668;SDS011;59898;52.786;6.892;2023-02-13T03:24:16;20.15;;;13.30;;
52668;SDS011;59898;52.786;6.892;2023-02-13T03:28:16;18.15;;;12.43;;
52668;SDS011;59898;52.786;6.892;2023-02-13T03:32:18;22.35;;;13.13;;
52668;SDS011;59898;52.786;6.892;2023-02-13T03:40:04;20.17;;;13.25;;
52668;SDS011;59898;52.786;6.892;2023-02-13T03:43:59;21.83;;;12.35;;
52668;SDS011;59898;52.786;6.892;2023-02-13T03:47:20;21.30;;;14.52;;
52668;SDS011;59898;52.786;6.892;2023-02-13T03:50:40;21.50;;;14.40;;
52668;SDS011;59898;52.786;6.892;2023-02-13T03:54:10;21.17;;;13.37;;
52668;SDS011;59898;52.786;6.892;2023-02-13T03:57:40;22.00;;;14.13;;
52668;SDS011;59898;52.786;6.892;2023-02-13T04:01:23;22.73;;;13.18;;
52668;SDS011;59898;52.786;6.892;2023-02-13T04:05:49;24.77;;;12.57;;
52668;SDS011;59898;52.786;6.892;2023-02-13T04:08:41;24.25;;;13.70;;
52668;SDS011;59898;52.786;6.892;2023-02-13T04:15:42;22.25;;;13.30;;
52668;SDS011;59898;52.786;6.892;2023-02-13T04:19:09;18.25;;;11.90;;
52668;SDS011;59898;52.786;6.892;2023-02-13T04:22:30;21.63;;;15.18;;
52668;SDS011;59898;52.786;6.892;2023-02-13T04:25:52;19.88;;;13.13;;
52668;SDS011;59898;52.786;6.892;2023-02-13T04:29:14;18.85;;;11.85;;
52668;SDS011;59898;52.786;6.892;2023-02-13T04:32:35;20.52;;;13.10;;
52668;SDS011;59898;52.786;6.892;2023-02-13T04:35:56;26.13;;;14.30;;
52668;SDS011;59898;52.786;6.892;2023-02-13T04:39:17;25.10;;;12.90;;
52668;SDS011;59898;52.786;6.892;2023-02-13T04:42:37;19.83;;;12.27;;
52668;SDS011;59898;52.786;6.892;2023-02-13T04:45:58;23.65;;;14.55;;
52668;SDS011;59898;52.786;6.892;2023-02-13T04:49:19;25.05;;;14.40;;
52668;SDS011;59898;52.786;6.892;2023-02-13T04:52:39;21.05;;;13.20;;
52668;SDS011;59898;52.786;6.892;2023-02-13T04:56:00;27.95;;;15.02;;
52668;SDS011;59898;52.786;6.892;2023-02-13T04:59:21;19.58;;;13.43;;
52668;SDS011;59898;52.786;6.892;2023-02-13T05:02:41;22.77;;;13.88;;
52668;SDS011;59898;52.786;6.892;2023-02-13T05:06:02;23.35;;;14.50;;
52668;SDS011;59898;52.786;6.892;2023-02-13T05:09:23;21.63;;;13.13;;
52668;SDS011;59898;52.786;6.892;2023-02-13T05:12:43;25.08;;;14.30;;
52668;SDS011;59898;52.786;6.892;2023-02-13T05:16:04;22.75;;;13.02;;
52668;SDS011;59898;52.786;6.892;2023-02-13T05:19:25;18.15;;;12.38;;
52668;SDS011;59898;52.786;6.892;2023-02-13T05:22:46;20.70;;;13.07;;
52668;SDS011;59898;52.786;6.892;2023-02-13T05:26:30;25.98;;;14.38;;
52668;SDS011;59898;52.786;6.892;2023-02-13T05:29:51;20.90;;;13.43;;
52668;SDS011;59898;52.786;6.892;2023-02-13T05:33:11;21.65;;;14.40;;
52668;SDS011;59898;52.786;6.892;2023-02-13T05:36:32;22.00;;;14.27;;
52668;SDS011;59898;52.786;6.892;2023-02-13T05:39:53;20.17;;;12.68;;
52668;SDS011;59898;52.786;6.892;2023-02-13T05:43:14;22.23;;;11.70;;
52668;SDS011;59898;52.786;6.892;2023-02-13T05:46:35;21.80;;;13.52;;
52668;SDS011;59898;52.786;6.892;2023-02-13T05:49:57;21.88;;;12.73;;
52668;SDS011;59898;52.786;6.892;2023-02-13T05:53:18;24.63;;;16.80;;
52668;SDS011;59898;52.786;6.892;2023-02-13T05:56:39;26.63;;;14.07;;
52668;SDS011;59898;52.786;6.892;2023-02-13T05:59:59;20.80;;;13.70;;
52668;SDS011;59898;52.786;6.892;2023-02-13T06:03:20;24.33;;;13.60;;
52668;SDS011;59898;52.786;6.892;2023-02-13T06:06:41;24.83;;;14.00;;
52668;SDS011;59898;52.786;6.892;2023-02-13T06:10:01;20.75;;;13.88;;
52668;SDS011;59898;52.786;6.892;2023-02-13T06:13:22;23.80;;;14.57;;
52668;SDS011;59898;52.786;6.892;2023-02-13T06:16:43;21.60;;;14.77;;
52668;SDS011;59898;52.786;6.892;2023-02-13T06:20:04;18.25;;;11.80;;
52668;SDS011;59898;52.786;6.892;2023-02-13T06:23:25;20.88;;;13.30;;
52668;SDS011;59898;52.786;6.892;2023-02-13T06:26:46;22.08;;;13.88;;
52668;SDS011;59898;52.786;6.892;2023-02-13T06:30:07;20.35;;;14.20;;
52668;SDS011;59898;52.786;6.892;2023-02-13T06:33:28;25.63;;;14.13;;
52668;SDS011;59898;52.786;6.892;2023-02-13T06:36:49;21.83;;;13.50;;
52668;SDS011;59898;52.786;6.892;2023-02-13T06:40:10;21.40;;;13.60;;
52668;SDS011;59898;52.786;6.892;2023-02-13T06:43:32;21.58;;;14.23;;
52668;SDS011;59898;52.786;6.892;2023-02-13T06:46:53;25.02;;;14.45;;
52668;SDS011;59898;52.786;6.892;2023-02-13T06:50:14;23.23;;;14.98;;
52668;SDS011;59898;52.786;6.892;2023-02-13T06:53:35;22.33;;;13.27;;
52668;SDS011;59898;52.786;6.892;2023-02-13T06:56:56;20.38;;;13.68;;
52668;SDS011;59898;52.786;6.892;2023-02-13T07:00:17;24.63;;;13.43;;
52668;SDS011;59898;52.786;6.892;2023-02-13T07:03:38;22.00;;;13.82;;
52668;SDS011;59898;52.786;6.892;2023-02-13T07:06:59;20.13;;;13.68;;
52668;SDS011;59898;52.786;6.892;2023-02-13T07:10:20;22.65;;;13.85;;
52668;SDS011;59898;52.786;6.892;2023-02-13T07:13:41;22.90;;;14.10;;
52668;SDS011;59898;52.786;6.892;2023-02-13T07:17:02;23.90;;;14.02;;
52668;SDS011;59898;52.786;6.892;2023-02-13T07:20:23;22.38;;;13.40;;
52668;SDS011;59898;52.786;6.892;2023-02-13T07:23:44;21.98;;;14.70;;
52668;SDS011;59898;52.786;6.892;2023-02-13T07:27:05;23.77;;;15.30;;
52668;SDS011;59898;52.786;6.892;2023-02-13T07:30:25;23.13;;;15.05;;
52668;SDS011;59898;52.786;6.892;2023-02-13T07:33:49;25.05;;;14.00;;
52668;SDS011;59898;52.786;6.892;2023-02-13T07:37:10;22.65;;;15.20;;
52668;SDS011;59898;52.786;6.892;2023-02-13T07:40:31;21.67;;;13.80;;
52668;SDS011;59898;52.786;6.892;2023-02-13T07:44:20;24.55;;;15.40;;
52668;SDS011;59898;52.786;6.892;2023-02-13T07:47:41;25.00;;;14.63;;
52668;SDS011;59898;52.786;6.892;2023-02-13T07:51:03;26.20;;;15.95;;
52668;SDS011;59898;52.786;6.892;2023-02-13T07:54:24;22.07;;;14.43;;
52668;SDS011;59898;52.786;6.892;2023-02-13T07:57:45;20.60;;;14.27;;
52668;SDS011;59898;52.786;6.892;2023-02-13T08:01:10;21.80;;;13.25;;
52668;SDS011;59898;52.786;6.892;2023-02-13T08:04:33;23.38;;;13.68;;
52668;SDS011;59898;52.786;6.892;2023-02-13T08:07:53;26.15;;;14.63;;
52668;SDS011;59898;52.786;6.892;2023-02-13T08:11:26;24.98;;;14.30;;
52668;SDS011;59898;52.786;6.892;2023-02-13T08:15:13;25.23;;;15.35;;
52668;SDS011;59898;52.786;6.892;2023-02-13T08:18:34;25.80;;;15.88;;
52668;SDS011;59898;52.786;6.892;2023-02-13T08:21:55;19.20;;;13.30;;
52668;SDS011;59898;52.786;6.892;2023-02-13T08:25:16;26.85;;;14.45;;
52668;SDS011;59898;52.786;6.892;2023-02-13T08:28:37;23.58;;;14.95;;
52668;SDS011;59898;52.786;6.892;2023-02-13T08:31:58;29.55;;;15.35;;
52668;SDS011;59898;52.786;6.892;2023-02-13T08:35:19;27.70;;;15.02;;
52668;SDS011;59898;52.786;6.892;2023-02-13T08:38:40;30.02;;;15.25;;
52668;SDS011;59898;52.786;6.892;2023-02-13T08:42:01;24.42;;;16.42;;
52668;SDS011;59898;52.786;6.892;2023-02-13T08:45:22;26.42;;;14.55;;
52668;SDS011;59898;52.786;6.892;2023-02-13T08:48:42;22.80;;;14.30;;
52668;SDS011;59898;52.786;6.892;2023-02-13T08:52:03;24.75;;;14.40;;
52668;SDS011;59898;52.786;6.892;2023-02-13T08:55:25;25.83;;;14.50;;
52668;SDS011;59898;52.786;6.892;2023-02-13T08:58:47;24.08;;;13.43;;
52668;SDS011;59898;52.786;6.892;2023-02-13T09:02:11;23.75;;;15.07;;
52668;SDS011;59898;52.786;6.892;2023-02-13T09:05:33;23.25;;;14.43;;
52668;SDS011;59898;52.786;6.892;2023-02-13T09:08:55;22.45;;;14.05;;
52668;SDS011;59898;52.786;6.892;2023-02-13T09:12:15;27.33;;;16.10;;
52668;SDS011;59898;52.786;6.892;2023-02-13T09:15:39;25.85;;;15.93;;
52668;SDS011;59898;52.786;6.892;2023-02-13T09:19:00;23.05;;;14.65;;
52668;SDS011;59898;52.786;6.892;2023-02-13T09:22:21;30.20;;;16.75;;
52668;SDS011;59898;52.786;6.892;2023-02-13T09:25:41;25.15;;;16.75;;
52668;SDS011;59898;52.786;6.892;2023-02-13T09:29:02;25.52;;;15.73;;
52668;SDS011;59898;52.786;6.892;2023-02-13T09:32:23;23.80;;;14.73;;
52668;SDS011;59898;52.786;6.892;2023-02-13T09:35:43;26.77;;;16.05;;
52668;SDS011;59898;52.786;6.892;2023-02-13T09:39:04;30.10;;;17.15;;
52668;SDS011;59898;52.786;6.892;2023-02-13T09:42:26;28.63;;;16.58;;
52668;SDS011;59898;52.786;6.892;2023-02-13T09:45:50;28.20;;;18.20;;
52668;SDS011;59898;52.786;6.892;2023-02-13T09:49:14;31.00;;;18.07;;
52668;SDS011;59898;52.786;6.892;2023-02-13T09:52:39;30.13;;;18.10;;
52668;SDS011;59898;52.786;6.892;2023-02-13T09:56:05;28.75;;;18.48;;
52668;SDS011;59898;52.786;6.892;2023-02-13T10:03:18;29.30;;;17.80;;
52668;SDS011;59898;52.786;6.892;2023-02-13T10:17:35;27.73;;;17.90;;
52668;SDS011;59898;52.786;6.892;2023-02-13T10:21:00;29.90;;;19.50;;
52668;SDS011;59898;52.786;6.892;2023-02-13T10:28:11;30.98;;;21.02;;
52668;SDS011;59898;52.786;6.892;2023-02-13T10:31:37;37.63;;;20.23;;
52668;SDS011;59898;52.786;6.892;2023-02-13T10:34:59;30.10;;;19.80;;
52668;SDS011;59898;52.786;6.892;2023-02-13T10:41:45;30.38;;;19.85;;
52668;SDS011;59898;52.786;6.892;2023-02-13T10:49:01;27.92;;;19.48;;
52668;SDS011;59898;52.786;6.892;2023-02-13T10:56:27;33.47;;;18.80;;
52668;SDS011;59898;52.786;6.892;2023-02-13T11:03:40;33.08;;;20.00;;
52668;SDS011;59898;52.786;6.892;2023-02-13T11:07:02;31.92;;;21.83;;
52668;SDS011;59898;52.786;6.892;2023-02-13T11:10:24;30.55;;;20.42;;
52668;SDS011;59898;52.786;6.892;2023-02-13T11:13:46;31.45;;;19.58;;
52668;SDS011;59898;52.786;6.892;2023-02-13T11:17:27;27.77;;;18.83;;
52668;SDS011;59898;52.786;6.892;2023-02-13T11:20:58;29.67;;;19.92;;
52668;SDS011;59898;52.786;6.892;2023-02-13T11:24:23;27.02;;;17.88;;
52668;SDS011;59898;52.786;6.892;2023-02-13T11:34:35;29.55;;;19.40;;
52668;SDS011;59898;52.786;6.892;2023-02-13T11:41:42;32.90;;;21.50;;
52668;SDS011;59898;52.786;6.892;2023-02-13T11:45:19;27.08;;;19.13;;
52668;SDS011;59898;52.786;6.892;2023-02-13T11:49:05;33.30;;;20.23;;
52668;SDS011;59898;52.786;6.892;2023-02-13T11:52:33;31.15;;;20.67;;
52668;SDS011;59898;52.786;6.892;2023-02-13T11:56:36;30.75;;;20.88;;
52668;SDS011;59898;52.786;6.892;2023-02-13T11:59:43;25.88;;;17.83;;
52668;SDS011;59898;52.786;6.892;2023-02-13T12:06:40;24.70;;;17.05;;
52668;SDS011;59898;52.786;6.892;2023-02-13T12:10:22;18.33;;;15.35;;
52668;SDS011;59898;52.786;6.892;2023-02-13T12:13:44;23.02;;;15.52;;
52668;SDS011;59898;52.786;6.892;2023-02-13T12:17:07;22.25;;;16.30;;
52668;SDS011;59898;52.786;6.892;2023-02-13T12:42:32;21.00;;;14.20;;
52668;SDS011;59898;52.786;6.892;2023-02-13T13:05:14;22.55;;;16.55;;
52668;SDS011;59898;52.786;6.892;2023-02-13T13:19:47;20.77;;;16.60;;
52668;SDS011;59898;52.786;6.892;2023-02-13T13:23:18;27.45;;;17.88;;
52668;SDS011;59898;52.786;6.892;2023-02-13T13:26:51;25.10;;;18.30;;
52668;SDS011;59898;52.786;6.892;2023-02-13T13:30:20;28.77;;;18.85;;
52668;SDS011;59898;52.786;6.892;2023-02-13T13:33:47;28.90;;;17.73;;
52668;SDS011;59898;52.786;6.892;2023-02-13T13:37:10;28.73;;;19.15;;
52668;SDS011;59898;52.786;6.892;2023-02-13T13:44:18;26.73;;;19.77;;
52668;SDS011;59898;52.786;6.892;2023-02-13T13:51:33;22.13;;;18.38;;
52668;SDS011;59898;52.786;6.892;2023-02-13T13:54:54;22.63;;;18.67;;
52668;SDS011;59898;52.786;6.892;2023-02-13T14:02:17;23.55;;;19.10;;
52668;SDS011;59898;52.786;6.892;2023-02-13T14:06:12;21.25;;;18.45;;
52668;SDS011;59898;52.786;6.892;2023-02-13T14:20:02;25.33;;;18.65;;
52668;SDS011;59898;52.786;6.892;2023-02-13T14:23:46;21.98;;;17.00;;
52668;SDS011;59898;52.786;6.892;2023-02-13T14:27:25;20.65;;;16.73;;
52668;SDS011;59898;52.786;6.892;2023-02-13T14:30:52;20.50;;;16.10;;
52668;SDS011;59898;52.786;6.892;2023-02-13T14:34:35;20.52;;;16.15;;
52668;SDS011;59898;52.786;6.892;2023-02-13T14:37:58;20.40;;;16.50;;
52668;SDS011;59898;52.786;6.892;2023-02-13T14:41:42;23.35;;;17.25;;
52668;SDS011;59898;52.786;6.892;2023-02-13T14:45:10;17.48;;;13.70;;
52668;SDS011;59898;52.786;6.892;2023-02-13T14:48:44;20.70;;;15.95;;
52668;SDS011;59898;52.786;6.892;2023-02-13T14:52:30;20.77;;;16.38;;
52668;SDS011;59898;52.786;6.892;2023-02-13T14:55:56;19.33;;;15.52;;
52668;SDS011;59898;52.786;6.892;2023-02-13T14:59:21;21.25;;;14.90;;
52668;SDS011;59898;52.786;6.892;2023-02-13T15:02:46;20.70;;;16.23;;
52668;SDS011;59898;52.786;6.892;2023-02-13T15:06:34;20.80;;;16.00;;
52668;SDS011;59898;52.786;6.892;2023-02-13T15:09:57;22.95;;;16.83;;
52668;SDS011;59898;52.786;6.892;2023-02-13T15:13:51;23.33;;;17.10;;
52668;SDS011;59898;52.786;6.892;2023-02-13T15:17:13;21.90;;;17.83;;
52668;SDS011;59898;52.786;6.892;2023-02-13T15:21:00;21.77;;;16.13;;
52668;SDS011;59898;52.786;6.892;2023-02-13T15:24:21;24.00;;;16.95;;
52668;SDS011;59898;52.786;6.892;2023-02-13T15:27:43;20.85;;;16.17;;
52668;SDS011;59898;52.786;6.892;2023-02-13T15:31:06;22.30;;;17.23;;
52668;SDS011;59898;52.786;6.892;2023-02-13T15:34:44;22.52;;;17.27;;
52668;SDS011;59898;52.786;6.892;2023-02-13T15:42:00;25.25;;;19.27;;
52668;SDS011;59898;52.786;6.892;2023-02-13T15:45:22;24.73;;;18.83;;
52668;SDS011;59898;52.786;6.892;2023-02-13T15:48:46;21.30;;;17.15;;
52668;SDS011;59898;52.786;6.892;2023-02-13T15:52:11;29.40;;;21.20;;
52668;SDS011;59898;52.786;6.892;2023-02-13T15:55:37;24.73;;;19.00;;
52668;SDS011;59898;52.786;6.892;2023-02-13T15:58:58;24.92;;;18.77;;
52668;SDS011;59898;52.786;6.892;2023-02-13T16:02:21;25.33;;;19.08;;
52668;SDS011;59898;52.786;6.892;2023-02-13T16:06:03;29.38;;;19.45;;
52668;SDS011;59898;52.786;6.892;2023-02-13T16:09:32;26.00;;;20.38;;
52668;SDS011;59898;52.786;6.892;2023-02-13T16:12:55;28.70;;;19.35;;
52668;SDS011;59898;52.786;6.892;2023-02-13T16:16:17;26.00;;;19.88;;
52668;SDS011;59898;52.786;6.892;2023-02-13T16:20:15;24.00;;;19.02;;
52668;SDS011;59898;52.786;6.892;2023-02-13T16:23:26;28.25;;;21.15;;
52668;SDS011;59898;52.786;6.892;2023-02-13T16:26:49;26.75;;;20.52;;
52668;SDS011;59898;52.786;6.892;2023-02-13T16:33:40;27.95;;;22.08;;
52668;SDS011;59898;52.786;6.892;2023-02-13T16:37:01;32.28;;;24.05;;
52668;SDS011;59898;52.786;6.892;2023-02-13T16:44:00;34.75;;;27.33;;
52668;SDS011;59898;52.786;6.892;2023-02-13T16:47:22;29.50;;;22.15;;
52668;SDS011;59898;52.786;6.892;2023-02-13T16:50:44;30.80;;;22.77;;
52668;SDS011;59898;52.786;6.892;2023-02-13T16:54:05;31.20;;;23.27;;
52668;SDS011;59898;52.786;6.892;2023-02-13T16:57:37;31.10;;;21.60;;
52668;SDS011;59898;52.786;6.892;2023-02-13T17:01:00;27.03;;;22.33;;
52668;SDS011;59898;52.786;6.892;2023-02-13T17:04:23;33.65;;;20.55;;
52668;SDS011;59898;52.786;6.892;2023-02-13T17:07:53;30.52;;;22.98;;
52668;SDS011;59898;52.786;6.892;2023-02-13T17:11:20;31.17;;;22.70;;
52668;SDS011;59898;52.786;6.892;2023-02-13T17:14:41;30.63;;;22.50;;
52668;SDS011;59898;52.786;6.892;2023-02-13T17:18:02;30.45;;;22.75;;
52668;SDS011;59898;52.786;6.892;2023-02-13T17:21:23;34.00;;;23.85;;
52668;SDS011;59898;52.786;6.892;2023-02-13T17:24:43;37.45;;;25.30;;
52668;SDS011;59898;52.786;6.892;2023-02-13T17:28:37;32.83;;;21.98;;
52668;SDS011;59898;52.786;6.892;2023-02-13T17:31:52;34.58;;;23.45;;
52668;SDS011;59898;52.786;6.892;2023-02-13T17:35:15;37.22;;;24.80;;
52668;SDS011;59898;52.786;6.892;2023-02-13T17:38:36;34.60;;;24.05;;
52668;SDS011;59898;52.786;6.892;2023-02-13T17:41:57;35.63;;;23.10;;
52668;SDS011;59898;52.786;6.892;2023-02-13T17:45:18;29.00;;;22.35;;
52668;SDS011;59898;52.786;6.892;2023-02-13T17:52:01;35.00;;;23.38;;
52668;SDS011;59898;52.786;6.892;2023-02-13T17:55:27;29.95;;;22.33;;
52668;SDS011;59898;52.786;6.892;2023-02-13T17:58:49;33.83;;;21.55;;
52668;SDS011;59898;52.786;6.892;2023-02-13T18:02:14;30.63;;;23.13;;
52668;SDS011;59898;52.786;6.892;2023-02-13T18:05:37;30.67;;;22.65;;
52668;SDS011;59898;52.786;6.892;2023-02-13T18:08:58;32.97;;;22.30;;
52668;SDS011;59898;52.786;6.892;2023-02-13T18:12:21;28.35;;;20.48;;
52668;SDS011;59898;52.786;6.892;2023-02-13T18:15:43;32.72;;;22.98;;
52668;SDS011;59898;52.786;6.892;2023-02-13T18:19:04;27.17;;;21.63;;
52668;SDS011;59898;52.786;6.892;2023-02-13T18:22:24;28.75;;;20.52;;
52668;SDS011;59898;52.786;6.892;2023-02-13T18:25:45;26.55;;;19.80;;
52668;SDS011;59898;52.786;6.892;2023-02-13T18:29:06;28.80;;;21.70;;
52668;SDS011;59898;52.786;6.892;2023-02-13T18:32:27;29.65;;;21.33;;
52668;SDS011;59898;52.786;6.892;2023-02-13T18:35:47;27.15;;;19.85;;
52668;SDS011;59898;52.786;6.892;2023-02-13T18:39:08;31.35;;;21.98;;
52668;SDS011;59898;52.786;6.892;2023-02-13T18:42:29;30.08;;;21.67;;
52668;SDS011;59898;52.786;6.892;2023-02-13T18:45:49;33.60;;;20.77;;
52668;SDS011;59898;52.786;6.892;2023-02-13T18:49:10;26.10;;;19.50;;
52668;SDS011;59898;52.786;6.892;2023-02-13T18:52:32;29.65;;;19.77;;
52668;SDS011;59898;52.786;6.892;2023-02-13T18:56:00;31.33;;;20.80;;
52668;SDS011;59898;52.786;6.892;2023-02-13T18:59:22;28.90;;;20.08;;
52668;SDS011;59898;52.786;6.892;2023-02-13T19:02:43;34.85;;;25.08;;
52668;SDS011;59898;52.786;6.892;2023-02-13T19:06:07;40.55;;;28.23;;
52668;SDS011;59898;52.786;6.892;2023-02-13T19:09:30;37.30;;;26.60;;
52668;SDS011;59898;52.786;6.892;2023-02-13T19:12:50;37.33;;;26.10;;
52668;SDS011;59898;52.786;6.892;2023-02-13T19:16:15;36.15;;;25.35;;
52668;SDS011;59898;52.786;6.892;2023-02-13T19:19:37;33.35;;;23.52;;
52668;SDS011;59898;52.786;6.892;2023-02-13T19:22:57;32.17;;;21.55;;
52668;SDS011;59898;52.786;6.892;2023-02-13T19:26:19;32.78;;;23.13;;
52668;SDS011;59898;52.786;6.892;2023-02-13T19:29:41;33.75;;;21.98;;
52668;SDS011;59898;52.786;6.892;2023-02-13T19:33:02;31.13;;;20.77;;
52668;SDS011;59898;52.786;6.892;2023-02-13T19:36:24;32.15;;;21.75;;
52668;SDS011;59898;52.786;6.892;2023-02-13T19:39:45;31.48;;;21.30;;
52668;SDS011;59898;52.786;6.892;2023-02-13T19:43:06;31.67;;;20.92;;
52668;SDS011;59898;52.786;6.892;2023-02-13T19:46:30;29.58;;;21.15;;
52668;SDS011;59898;52.786;6.892;2023-02-13T19:49:51;30.35;;;21.13;;
52668;SDS011;59898;52.786;6.892;2023-02-13T19:53:12;31.17;;;22.77;;
52668;SDS011;59898;52.786;6.892;2023-02-13T19:56:34;32.53;;;22.17;;
52668;SDS011;59898;52.786;6.892;2023-02-13T19:59:56;28.30;;;20.30;;
52668;SDS011;59898;52.786;6.892;2023-02-13T20:03:20;32.08;;;21.50;;
52668;SDS011;59898;52.786;6.892;2023-02-13T20:06:41;28.55;;;19.27;;
52668;SDS011;59898;52.786;6.892;2023-02-13T20:10:02;32.22;;;21.35;;
52668;SDS011;59898;52.786;6.892;2023-02-13T20:13:24;30.48;;;20.52;;
52668;SDS011;59898;52.786;6.892;2023-02-13T20:16:46;30.45;;;20.13;;
52668;SDS011;59898;52.786;6.892;2023-02-13T20:20:07;28.52;;;20.25;;
52668;SDS011;59898;52.786;6.892;2023-02-13T20:23:28;30.13;;;19.80;;
52668;SDS011;59898;52.786;6.892;2023-02-13T20:26:48;29.38;;;19.63;;
52668;SDS011;59898;52.786;6.892;2023-02-13T20:30:10;24.88;;;18.58;;
52668;SDS011;59898;52.786;6.892;2023-02-13T20:33:34;29.40;;;18.95;;
52668;SDS011;59898;52.786;6.892;2023-02-13T20:36:55;28.88;;;19.95;;
52668;SDS011;59898;52.786;6.892;2023-02-13T20:40:16;30.02;;;20.38;;
52668;SDS011;59898;52.786;6.892;2023-02-13T20:43:37;30.15;;;20.40;;
52668;SDS011;59898;52.786;6.892;2023-02-13T20:46:58;29.88;;;19.77;;
52668;SDS011;59898;52.786;6.892;2023-02-13T20:50:19;29.65;;;19.08;;
52668;SDS011;59898;52.786;6.892;2023-02-13T20:53:40;28.00;;;19.15;;
52668;SDS011;59898;52.786;6.892;2023-02-13T20:57:01;27.67;;;18.77;;
52668;SDS011;59898;52.786;6.892;2023-02-13T21:00:22;29.05;;;19.23;;
52668;SDS011;59898;52.786;6.892;2023-02-13T21:03:43;28.60;;;19.42;;
52668;SDS011;59898;52.786;6.892;2023-02-13T21:07:06;31.40;;;19.90;;
52668;SDS011;59898;52.786;6.892;2023-02-13T21:10:28;27.10;;;19.25;;
52668;SDS011;59898;52.786;6.892;2023-02-13T21:13:49;33.58;;;20.80;;
52668;SDS011;59898;52.786;6.892;2023-02-13T21:17:10;27.77;;;20.58;;
52668;SDS011;59898;52.786;6.892;2023-02-13T21:20:31;29.48;;;20.48;;
52668;SDS011;59898;52.786;6.892;2023-02-13T21:23:52;30.55;;;20.50;;
52668;SDS011;59898;52.786;6.892;2023-02-13T21:27:14;31.87;;;21.77;;
52668;SDS011;59898;52.786;6.892;2023-02-13T21:30:35;29.92;;;20.65;;
52668;SDS011;59898;52.786;6.892;2023-02-13T21:33:59;28.27;;;19.67;;
52668;SDS011;59898;52.786;6.892;2023-02-13T21:37:23;32.47;;;21.05;;
52668;SDS011;59898;52.786;6.892;2023-02-13T21:40:44;33.92;;;21.25;;
52668;SDS011;59898;52.786;6.892;2023-02-13T21:44:04;35.13;;;21.60;;
52668;SDS011;59898;52.786;6.892;2023-02-13T21:47:26;33.53;;;21.20;;
52668;SDS011;59898;52.786;6.892;2023-02-13T21:50:46;30.98;;;19.17;;
52668;SDS011;59898;52.786;6.892;2023-02-13T21:54:08;30.33;;;21.27;;
52668;SDS011;59898;52.786;6.892;2023-02-13T21:57:29;30.05;;;20.33;;
52668;SDS011;59898;52.786;6.892;2023-02-13T22:00:49;30.98;;;21.67;;
52668;SDS011;59898;52.786;6.892;2023-02-13T22:04:10;31.25;;;21.73;;
52668;SDS011;59898;52.786;6.892;2023-02-13T22:07:31;35.03;;;22.02;;
52668;SDS011;59898;52.786;6.892;2023-02-13T22:11:11;32.53;;;20.63;;
52668;SDS011;59898;52.786;6.892;2023-02-13T22:14:32;32.47;;;22.15;;
52668;SDS011;59898;52.786;6.892;2023-02-13T22:17:53;27.83;;;21.58;;
52668;SDS011;59898;52.786;6.892;2023-02-13T22:21:14;32.40;;;21.60;;
52668;SDS011;59898;52.786;6.892;2023-02-13T22:24:37;29.77;;;21.30;;
52668;SDS011;59898;52.786;6.892;2023-02-13T22:27:58;34.05;;;22.65;;
52668;SDS011;59898;52.786;6.892;2023-02-13T22:31:19;33.67;;;20.95;;
52668;SDS011;59898;52.786;6.892;2023-02-13T22:34:40;32.10;;;21.20;;
52668;SDS011;59898;52.786;6.892;2023-02-13T22:38:01;30.02;;;18.85;;
52668;SDS011;59898;52.786;6.892;2023-02-13T22:41:22;29.42;;;20.23;;
52668;SDS011;59898;52.786;6.892;2023-02-13T22:44:44;34.65;;;22.92;;
52668;SDS011;59898;52.786;6.892;2023-02-13T22:48:05;38.28;;;24.58;;
52668;SDS011;59898;52.786;6.892;2023-02-13T22:51:27;33.17;;;22.92;;
52668;SDS011;59898;52.786;6.892;2023-02-13T22:54:50;32.78;;;23.02;;